Time;durP1;ratioP1;P1;durP2;ratioP2;P2;SDS_P1;SDS_P2;PMS_P1;PMS_P2;Temp;Humidity;BMP_temperature;BMP_pressure;BME280_temperature;BME280_humidity;BME280_pressure;Samples;Min_cycle;Max_cycle;Signal;HPM_P1;HPM_P2
2024/02/04 00:00:58;;;;;;;8.07;3.45;;;;;;;;;;5113718;27;20066;-73
2024/02/04 00:03:29;;;;;;;8.45;3.63;;;;;;;;;;5101610;28;20050;-76
2024/02/04 00:05:59;;;;;;;13.73;3.47;;;;;;;;;;5122232;28;20043;-75
2024/02/04 00:08:30;;;;;;;6.40;3.40;;;;;;;;;;5122525;27;20062;-74
2024/02/04 00:11:01;;;;;;;17.63;4.13;;;;;;;;;;5122244;28;20047;-72
2024/02/04 00:13:31;;;;;;;11.90;3.10;;;;;;;;;;5122380;28;20070;-75
2024/02/04 00:16:02;;;;;;;8.43;3.63;;;;;;;;;;5122227;28;20049;-74
2024/02/04 00:18:34;;;;;;;19.83;4.95;;;;;;;;;;5115972;27;20054;-75
2024/02/04 00:21:05;;;;;;;14.23;4.05;;;;;;;;;;5117461;27;20516;-74
2024/02/04 00:23:36;;;;;;;15.02;4.00;;;;;;;;;;5112386;28;20413;-73
2024/02/04 00:26:06;;;;;;;10.27;3.55;;;;;;;;;;5102231;28;20073;-73
2024/02/04 00:28:36;;;;;;;8.82;3.30;;;;;;;;;;5102316;28;20516;-75
2024/02/04 00:31:07;;;;;;;7.07;3.83;;;;;;;;;;5105937;28;20618;-75
2024/02/04 00:33:38;;;;;;;15.32;5.90;;;;;;;;;;5103056;28;20061;-74
2024/02/04 00:36:10;;;;;;;13.50;4.95;;;;;;;;;;5105518;28;20375;-74
2024/02/04 00:38:40;;;;;;;9.00;4.78;;;;;;;;;;5105543;28;20410;-75
2024/02/04 00:41:11;;;;;;;8.30;3.45;;;;;;;;;;5102528;28;20055;-74
2024/02/04 00:43:42;;;;;;;12.52;3.97;;;;;;;;;;5113008;27;20051;-74
2024/02/04 00:46:13;;;;;;;27.42;5.53;;;;;;;;;;5116306;27;20050;-75
2024/02/04 00:48:43;;;;;;;29.38;4.95;;;;;;;;;;5123835;27;20054;-74
2024/02/04 00:51:16;;;;;;;22.20;4.90;;;;;;;;;;5119978;27;20050;-74
2024/02/04 00:53:48;;;;;;;14.80;3.95;;;;;;;;;;5130367;27;20047;-73
2024/02/04 00:56:19;;;;;;;23.00;4.50;;;;;;;;;;5112765;27;20055;-72
2024/02/04 00:58:49;;;;;;;16.38;4.05;;;;;;;;;;5105495;28;20051;-74
2024/02/04 01:01:20;;;;;;;13.52;4.18;;;;;;;;;;5103118;28;20047;-73
2024/02/04 01:03:51;;;;;;;12.35;4.05;;;;;;;;;;5105130;27;20560;-74
2024/02/04 01:06:22;;;;;;;22.52;4.82;;;;;;;;;;5124692;27;20054;-75
2024/02/04 01:08:52;;;;;;;19.10;4.55;;;;;;;;;;5125169;27;20054;-74
2024/02/04 01:11:23;;;;;;;18.55;3.90;;;;;;;;;;5125031;27;20050;-75
2024/02/04 01:13:55;;;;;;;21.60;4.05;;;;;;;;;;5125816;27;20046;-72
2024/02/04 01:16:26;;;;;;;12.77;3.13;;;;;;;;;;5123667;27;20074;-73
2024/02/04 01:18:57;;;;;;;15.18;4.95;;;;;;;;;;5124876;27;20417;-72
2024/02/04 01:21:27;;;;;;;14.32;4.85;;;;;;;;;;5116145;27;20048;-74
2024/02/04 01:23:59;;;;;;;15.30;4.20;;;;;;;;;;5124345;27;20051;-73
2024/02/04 01:26:30;;;;;;;23.23;4.30;;;;;;;;;;5113878;27;20055;-75
2024/02/04 01:29:01;;;;;;;23.63;4.30;;;;;;;;;;5113090;27;20028;-73
2024/02/04 01:31:32;;;;;;;11.88;4.07;;;;;;;;;;5111271;27;20054;-73
2024/02/04 01:34:04;;;;;;;9.27;4.05;;;;;;;;;;5112928;27;20059;-73
2024/02/04 01:36:36;;;;;;;21.48;3.78;;;;;;;;;;5110294;27;20638;-74
2024/02/04 01:39:07;;;;;;;17.48;3.88;;;;;;;;;;5103876;28;20506;-73
2024/02/04 01:41:37;;;;;;;18.42;4.07;;;;;;;;;;5102144;28;20056;-74
2024/02/04 01:44:09;;;;;;;15.95;3.88;;;;;;;;;;5103493;28;20050;-74
2024/02/04 01:46:41;;;;;;;10.50;3.72;;;;;;;;;;5101143;28;20526;-73
2024/02/04 01:49:12;;;;;;;12.35;3.42;;;;;;;;;;5100668;28;20090;-74
2024/02/04 01:51:42;;;;;;;6.10;3.10;;;;;;;;;;5103707;28;20047;-73
2024/02/04 01:54:15;;;;;;;14.35;3.78;;;;;;;;;;5101482;28;20056;-73
2024/02/04 01:56:49;;;;;;;14.93;4.60;;;;;;;;;;5103516;28;20544;-74
2024/02/04 01:59:22;;;;;;;12.35;4.32;;;;;;;;;;5102193;28;20059;-73
2024/02/04 02:01:53;;;;;;;13.48;5.93;;;;;;;;;;5102068;28;20395;-74
2024/02/04 02:04:26;;;;;;;11.88;4.40;;;;;;;;;;5101898;28;20509;-74
2024/02/04 02:06:59;;;;;;;11.70;4.80;;;;;;;;;;5103243;28;20425;-73
2024/02/04 02:09:30;;;;;;;12.65;4.72;;;;;;;;;;5101464;28;20063;-73
2024/02/04 02:12:10;;;;;;;11.57;4.55;;;;;;;;;;5102255;28;20058;-75
2024/02/04 02:14:48;;;;;;;13.13;4.90;;;;;;;;;;5101833;28;20783;-74
2024/02/04 02:17:29;;;;;;;9.75;4.03;;;;;;;;;;5103793;28;20521;-78
2024/02/04 02:20:07;;;;;;;7.07;3.83;;;;;;;;;;5084700;28;20851;-73
2024/02/04 02:22:40;;;;;;;12.73;4.47;;;;;;;;;;5102020;28;20054;-74
2024/02/04 02:25:12;;;;;;;10.70;4.43;;;;;;;;;;5103422;28;20051;-74
2024/02/04 02:27:51;;;;;;;16.70;4.53;;;;;;;;;;5101110;28;20532;-73
2024/02/04 02:30:22;;;;;;;17.45;4.00;;;;;;;;;;5104036;28;20051;-74
2024/02/04 02:32:52;;;;;;;10.38;4.35;;;;;;;;;;5103135;28;20048;-73
2024/02/04 02:35:24;;;;;;;6.63;4.15;;;;;;;;;;5103615;28;20053;-74
2024/02/04 02:38:18;;;;;;;14.38;4.50;;;;;;;;;;5101392;28;20054;-74
2024/02/04 02:40:54;;;;;;;7.20;3.67;;;;;;;;;;5102880;28;20055;-73
2024/02/04 02:43:27;;;;;;;10.77;3.50;;;;;;;;;;5102210;28;20040;-73
2024/02/04 02:45:59;;;;;;;13.68;4.22;;;;;;;;;;5103232;28;20418;-74
2024/02/04 02:48:32;;;;;;;10.45;4.10;;;;;;;;;;5103004;28;20498;-74
2024/02/04 02:51:03;;;;;;;8.32;4.40;;;;;;;;;;5103457;28;20055;-74
2024/02/04 02:53:35;;;;;;;10.10;3.78;;;;;;;;;;5103221;28;20485;-74
2024/02/04 02:56:07;;;;;;;9.32;5.00;;;;;;;;;;5101961;28;20040;-73
2024/02/04 02:58:37;;;;;;;5.97;3.40;;;;;;;;;;5102896;28;20043;-74
2024/02/04 03:01:08;;;;;;;9.05;3.78;;;;;;;;;;5102541;28;20050;-73
2024/02/04 03:03:39;;;;;;;13.40;3.47;;;;;;;;;;5099984;28;20099;-74
2024/02/04 03:06:10;;;;;;;4.93;3.70;;;;;;;;;;5102606;28;20683;-73
2024/02/04 03:08:43;;;;;;;8.80;4.40;;;;;;;;;;5084341;28;20060;-73
2024/02/04 03:11:14;;;;;;;13.18;3.35;;;;;;;;;;5101113;28;20510;-74
2024/02/04 03:13:44;;;;;;;5.70;3.30;;;;;;;;;;5103240;28;20043;-73
2024/02/04 03:16:15;;;;;;;8.07;3.25;;;;;;;;;;5102273;28;20058;-73
2024/02/04 03:18:46;;;;;;;7.40;4.00;;;;;;;;;;5100767;28;20059;-73
2024/02/04 03:21:18;;;;;;;5.10;3.53;;;;;;;;;;5102794;28;20048;-74
2024/02/04 03:23:48;;;;;;;5.85;3.88;;;;;;;;;;5099984;28;20062;-73
2024/02/04 03:26:21;;;;;;;7.10;3.78;;;;;;;;;;5100594;28;20048;-74
2024/02/04 03:28:52;;;;;;;9.18;4.00;;;;;;;;;;5100372;28;20047;-73
2024/02/04 03:31:25;;;;;;;8.43;4.00;;;;;;;;;;5102198;28;20047;-73
2024/02/04 03:33:56;;;;;;;7.25;3.28;;;;;;;;;;5102347;28;20506;-73
2024/02/04 03:36:26;;;;;;;8.07;4.47;;;;;;;;;;5102368;28;20410;-74
2024/02/04 03:38:59;;;;;;;10.40;3.83;;;;;;;;;;5102229;28;20054;-72
2024/02/04 03:41:30;;;;;;;7.55;3.88;;;;;;;;;;5100909;28;20056;-73
2024/02/04 03:43:59;;;;;;;7.90;4.00;;;;;;;;;;5102623;28;20939;-73
2024/02/04 03:46:31;;;;;;;9.88;3.55;;;;;;;;;;5100897;28;20525;-72
2024/02/04 03:49:01;;;;;;;6.05;4.28;;;;;;;;;;5100385;28;20410;-73
2024/02/04 03:51:32;;;;;;;5.82;4.60;;;;;;;;;;5100323;28;20054;-73
2024/02/04 03:54:03;;;;;;;10.60;4.57;;;;;;;;;;5102156;28;20687;-73
2024/02/04 03:56:34;;;;;;;6.68;3.67;;;;;;;;;;5100531;28;20670;-74
2024/02/04 03:59:06;;;;;;;6.95;3.50;;;;;;;;;;5102099;28;20044;-73
2024/02/04 04:01:37;;;;;;;8.32;3.63;;;;;;;;;;5101907;28;20073;-73
2024/02/04 04:04:08;;;;;;;8.50;3.70;;;;;;;;;;5103443;28;20039;-73
2024/02/04 04:06:38;;;;;;;6.65;3.72;;;;;;;;;;5106788;28;20036;-74
2024/02/04 04:09:10;;;;;;;14.07;4.15;;;;;;;;;;5106438;28;20040;-73
2024/02/04 04:11:41;;;;;;;7.55;4.30;;;;;;;;;;5106492;28;20418;-73
2024/02/04 04:14:11;;;;;;;6.47;4.50;;;;;;;;;;5106277;28;20414;-74
2024/02/04 04:16:41;;;;;;;8.75;4.43;;;;;;;;;;5105743;28;20070;-73
2024/02/04 04:19:12;;;;;;;10.23;3.70;;;;;;;;;;5105796;28;20043;-74
2024/02/04 04:21:43;;;;;;;8.13;3.78;;;;;;;;;;5108731;27;20051;-74
2024/02/04 04:24:15;;;;;;;9.20;4.40;;;;;;;;;;5125801;27;20051;-73
2024/02/04 04:26:46;;;;;;;5.65;4.07;;;;;;;;;;5126676;27;20042;-73
2024/02/04 04:29:17;;;;;;;12.15;4.43;;;;;;;;;;5126213;27;20497;-73
2024/02/04 04:31:48;;;;;;;9.82;4.32;;;;;;;;;;5125204;27;20506;-74
2024/02/04 04:34:19;;;;;;;10.18;4.50;;;;;;;;;;5126617;27;20043;-73
2024/02/04 04:36:51;;;;;;;7.47;4.65;;;;;;;;;;5126408;27;20043;-73
2024/02/04 04:39:21;;;;;;;9.80;3.85;;;;;;;;;;5125805;27;20066;-73
2024/02/04 04:41:52;;;;;;;9.25;4.63;;;;;;;;;;5124229;27;20055;-73
2024/02/04 04:44:21;;;;;;;6.15;4.00;;;;;;;;;;5126516;27;20058;-73
2024/02/04 04:46:52;;;;;;;7.55;4.25;;;;;;;;;;5125800;27;20070;-73
2024/02/04 04:49:25;;;;;;;11.85;3.95;;;;;;;;;;5126051;27;20039;-73
2024/02/04 04:51:55;;;;;;;7.95;4.78;;;;;;;;;;5126283;27;20050;-73
2024/02/04 04:54:27;;;;;;;6.95;4.18;;;;;;;;;;5126039;27;20043;-73
2024/02/04 04:56:59;;;;;;;10.38;4.93;;;;;;;;;;5125977;27;20513;-74
2024/02/04 04:59:30;;;;;;;5.53;3.72;;;;;;;;;;5127146;27;20039;-73
2024/02/04 05:02:00;;;;;;;9.60;3.95;;;;;;;;;;5126223;27;20050;-74
2024/02/04 05:04:31;;;;;;;6.32;3.72;;;;;;;;;;5125842;27;20959;-74
2024/02/04 05:07:02;;;;;;;10.55;4.25;;;;;;;;;;5126016;27;20055;-74
2024/02/04 05:09:33;;;;;;;6.28;3.92;;;;;;;;;;5125758;27;20043;-73
2024/02/04 05:12:06;;;;;;;13.68;4.72;;;;;;;;;;5125863;27;20070;-74
2024/02/04 05:14:37;;;;;;;6.90;3.35;;;;;;;;;;5126559;27;20086;-73
2024/02/04 05:17:09;;;;;;;6.90;4.57;;;;;;;;;;5126418;27;20039;-73
2024/02/04 05:19:43;;;;;;;12.73;5.00;;;;;;;;;;5126574;27;20635;-73
2024/02/04 05:22:13;;;;;;;9.73;4.72;;;;;;;;;;5126282;27;20478;-74
2024/02/04 05:24:44;;;;;;;8.30;4.22;;;;;;;;;;5126116;27;20047;-73
2024/02/04 05:27:16;;;;;;;8.35;4.18;;;;;;;;;;5125952;27;20054;-74
2024/02/04 05:29:49;;;;;;;12.10;3.92;;;;;;;;;;5125443;27;20728;-73
2024/02/04 05:32:20;;;;;;;8.55;4.25;;;;;;;;;;5124585;27;20039;-73
2024/02/04 05:34:50;;;;;;;5.93;4.18;;;;;;;;;;5125011;27;20047;-73
2024/02/04 05:37:21;;;;;;;9.98;4.10;;;;;;;;;;5123495;27;20074;-74
2024/02/04 05:39:52;;;;;;;7.22;4.65;;;;;;;;;;5124914;27;20058;-73
2024/02/04 05:42:23;;;;;;;11.18;4.45;;;;;;;;;;5125379;27;20525;-73
2024/02/04 05:44:53;;;;;;;10.27;4.50;;;;;;;;;;5124814;27;20047;-73
2024/02/04 05:47:23;;;;;;;8.35;4.15;;;;;;;;;;5124735;27;20039;-74
2024/02/04 05:49:54;;;;;;;8.65;3.97;;;;;;;;;;5123684;27;20051;-73
2024/02/04 05:52:26;;;;;;;7.55;4.43;;;;;;;;;;5125349;27;20035;-74
2024/02/04 05:54:57;;;;;;;7.03;4.63;;;;;;;;;;5124934;27;20073;-73
2024/02/04 05:57:32;;;;;;;7.28;3.72;;;;;;;;;;5124737;27;20054;-73
2024/02/04 06:00:04;;;;;;;5.90;3.80;;;;;;;;;;5124814;27;20039;-74
2024/02/04 06:02:37;;;;;;;8.07;4.10;;;;;;;;;;5125638;27;20070;-74
2024/02/04 06:05:08;;;;;;;8.93;4.25;;;;;;;;;;5123805;27;20054;-73
2024/02/04 06:07:37;;;;;;;8.30;4.00;;;;;;;;;;5124052;27;20047;-74
2024/02/04 06:10:13;;;;;;;7.10;3.95;;;;;;;;;;5124759;27;20481;-73
2024/02/04 06:12:45;;;;;;;7.75;3.67;;;;;;;;;;5124012;27;20056;-73
2024/02/04 06:15:16;;;;;;;6.28;4.10;;;;;;;;;;5124759;27;20042;-73
2024/02/04 06:17:46;;;;;;;6.88;3.97;;;;;;;;;;5124827;27;20494;-74
2024/02/04 06:20:17;;;;;;;8.55;4.53;;;;;;;;;;5125123;27;20043;-73
2024/02/04 06:22:48;;;;;;;11.60;4.10;;;;;;;;;;5124470;27;20047;-73
2024/02/04 06:25:20;;;;;;;10.77;5.28;;;;;;;;;;5124254;27;20409;-74
2024/02/04 06:27:51;;;;;;;10.73;4.60;;;;;;;;;;5122810;27;20046;-74
2024/02/04 06:30:24;;;;;;;7.45;4.40;;;;;;;;;;5124464;27;20501;-74
2024/02/04 06:32:56;;;;;;;9.57;4.57;;;;;;;;;;5123851;27;20516;-73
2024/02/04 06:35:27;;;;;;;8.60;4.25;;;;;;;;;;5124153;27;20490;-74
2024/02/04 06:37:57;;;;;;;12.20;5.43;;;;;;;;;;5122409;27;20057;-74
2024/02/04 06:40:30;;;;;;;7.53;4.85;;;;;;;;;;5123009;27;20059;-73
2024/02/04 06:43:02;;;;;;;7.85;4.45;;;;;;;;;;5123515;27;20042;-73
2024/02/04 06:45:34;;;;;;;7.15;4.40;;;;;;;;;;5123757;27;20516;-74
2024/02/04 06:48:05;;;;;;;8.50;4.15;;;;;;;;;;5123594;27;20039;-73
2024/02/04 06:50:37;;;;;;;6.97;4.40;;;;;;;;;;5123260;27;20039;-74
2024/02/04 06:53:09;;;;;;;7.40;3.92;;;;;;;;;;5123655;27;20054;-73
2024/02/04 06:55:40;;;;;;;7.28;4.32;;;;;;;;;;5123190;27;20509;-75
2024/02/04 06:58:10;;;;;;;11.82;4.90;;;;;;;;;;5121693;27;20506;-73
2024/02/04 07:00:42;;;;;;;6.97;4.38;;;;;;;;;;5123031;27;20058;-73
2024/02/04 07:03:13;;;;;;;10.93;4.90;;;;;;;;;;5122940;27;20054;-73
2024/02/04 07:05:46;;;;;;;9.30;4.28;;;;;;;;;;5122808;27;20051;-73
2024/02/04 07:08:17;;;;;;;11.35;4.85;;;;;;;;;;5123278;27;20556;-73
2024/02/04 07:10:48;;;;;;;7.88;5.18;;;;;;;;;;5122800;27;20051;-76
2024/02/04 07:13:19;;;;;;;9.70;4.50;;;;;;;;;;5123162;27;20498;-73
2024/02/04 07:15:49;;;;;;;8.88;4.35;;;;;;;;;;5123047;27;20054;-74
2024/02/04 07:18:21;;;;;;;9.68;5.53;;;;;;;;;;5123433;27;20406;-74
2024/02/04 07:20:52;;;;;;;11.70;4.75;;;;;;;;;;5121057;27;20057;-73
2024/02/04 07:23:23;;;;;;;11.55;4.47;;;;;;;;;;5123238;27;20045;-74
2024/02/04 07:25:54;;;;;;;8.65;4.43;;;;;;;;;;5122882;27;20051;-73
2024/02/04 07:28:23;;;;;;;10.35;4.57;;;;;;;;;;5122720;27;20046;-74
2024/02/04 07:30:55;;;;;;;10.05;4.68;;;;;;;;;;5122758;27;20047;-73
2024/02/04 07:33:26;;;;;;;9.10;4.80;;;;;;;;;;5122938;27;20086;-74
2024/02/04 07:36:01;;;;;;;8.98;4.30;;;;;;;;;;5122873;27;20054;-73
2024/02/04 07:38:32;;;;;;;8.73;4.88;;;;;;;;;;5127351;27;20050;-74
2024/02/04 07:41:02;;;;;;;11.75;5.70;;;;;;;;;;5129862;27;20431;-73
2024/02/04 07:43:32;;;;;;;11.68;4.95;;;;;;;;;;5130201;27;20039;-72
2024/02/04 07:46:03;;;;;;;10.10;5.20;;;;;;;;;;5129773;27;20047;-73
2024/02/04 07:48:35;;;;;;;12.98;4.97;;;;;;;;;;5129667;27;20054;-73
2024/02/04 07:51:08;;;;;;;11.02;4.90;;;;;;;;;;5130287;27;20516;-73
2024/02/04 07:53:38;;;;;;;6.55;4.68;;;;;;;;;;5128027;27;20600;-74
2024/02/04 07:56:10;;;;;;;10.02;4.88;;;;;;;;;;5129634;27;20054;-73
2024/02/04 07:58:42;;;;;;;8.20;5.07;;;;;;;;;;5127383;27;20047;-74
2024/02/04 08:01:12;;;;;;;8.05;4.35;;;;;;;;;;5129804;27;20051;-74
2024/02/04 08:03:46;;;;;;;9.20;4.90;;;;;;;;;;5128831;27;20413;-74
2024/02/04 08:06:17;;;;;;;9.30;4.55;;;;;;;;;;5129495;27;20512;-74
2024/02/04 08:08:48;;;;;;;12.63;5.35;;;;;;;;;;5127940;27;20050;-74
2024/02/04 08:11:21;;;;;;;7.25;4.70;;;;;;;;;;5129187;27;20058;-74
2024/02/04 08:13:51;;;;;;;9.88;5.63;;;;;;;;;;5129827;27;20409;-74
2024/02/04 08:16:22;;;;;;;7.80;5.18;;;;;;;;;;5128740;27;20054;-73
2024/02/04 08:18:54;;;;;;;8.77;4.82;;;;;;;;;;5129252;27;20619;-73
2024/02/04 08:21:24;;;;;;;11.80;5.30;;;;;;;;;;5129148;27;20050;-74
2024/02/04 08:23:54;;;;;;;7.20;4.85;;;;;;;;;;5129309;27;20047;-73
2024/02/04 08:26:25;;;;;;;9.00;5.15;;;;;;;;;;5128993;27;20054;-73
2024/02/04 08:28:56;;;;;;;7.35;4.90;;;;;;;;;;5129169;27;20046;-74
2024/02/04 08:31:26;;;;;;;12.45;5.40;;;;;;;;;;5129343;27;20039;-74
2024/02/04 08:33:57;;;;;;;10.57;5.15;;;;;;;;;;5129187;27;20532;-74
2024/02/04 08:36:29;;;;;;;7.50;5.13;;;;;;;;;;5129456;27;20047;-74
2024/02/04 08:39:01;;;;;;;7.82;5.03;;;;;;;;;;5129475;27;20050;-73
2024/02/04 08:41:31;;;;;;;6.95;4.72;;;;;;;;;;5129549;27;20043;-74
2024/02/04 08:44:01;;;;;;;9.60;4.80;;;;;;;;;;5129029;27;20054;-74
2024/02/04 08:46:32;;;;;;;10.07;4.85;;;;;;;;;;5128751;27;20051;-74
2024/02/04 08:49:03;;;;;;;10.00;5.80;;;;;;;;;;5127947;27;20422;-74
2024/02/04 08:51:36;;;;;;;9.05;4.97;;;;;;;;;;5125437;27;20537;-74
2024/02/04 08:54:06;;;;;;;8.27;5.18;;;;;;;;;;5125837;27;20494;-73
2024/02/04 08:56:36;;;;;;;9.85;5.32;;;;;;;;;;5126551;27;21000;-74
2024/02/04 08:59:06;;;;;;;11.20;5.75;;;;;;;;;;5125869;27;20039;-74
2024/02/04 09:01:37;;;;;;;11.90;5.80;;;;;;;;;;5125446;27;20043;-74
2024/02/04 09:04:08;;;;;;;10.20;6.20;;;;;;;;;;5125342;27;20050;-74
2024/02/04 09:06:39;;;;;;;13.45;5.82;;;;;;;;;;5125502;27;20065;-74
2024/02/04 09:09:09;;;;;;;11.32;6.47;;;;;;;;;;5125938;27;20422;-73
2024/02/04 09:11:40;;;;;;;8.73;5.82;;;;;;;;;;5125268;27;20123;-74
2024/02/04 09:14:11;;;;;;;10.75;5.57;;;;;;;;;;5125261;27;20051;-74
2024/02/04 09:16:42;;;;;;;15.73;5.65;;;;;;;;;;5125177;27;20042;-74
2024/02/04 09:19:12;;;;;;;13.30;5.78;;;;;;;;;;5125518;27;20494;-74
2024/02/04 09:21:43;;;;;;;12.02;6.63;;;;;;;;;;5125336;27;20414;-73
2024/02/04 09:24:14;;;;;;;15.00;6.03;;;;;;;;;;5125629;27;20046;-74
2024/02/04 09:26:44;;;;;;;10.88;5.50;;;;;;;;;;5124733;27;20058;-74
2024/02/04 09:29:16;;;;;;;11.88;5.55;;;;;;;;;;5125316;27;20062;-74
2024/02/04 09:31:47;;;;;;;8.38;5.55;;;;;;;;;;5125452;27;20046;-74
2024/02/04 09:34:18;;;;;;;12.25;5.97;;;;;;;;;;5125366;27;20047;-74
2024/02/04 09:36:53;;;;;;;8.90;5.38;;;;;;;;;;5123889;27;20043;-76
2024/02/04 09:39:23;;;;;;;8.98;5.15;;;;;;;;;;5124935;27;20043;-75
2024/02/04 09:41:55;;;;;;;9.05;5.65;;;;;;;;;;5124576;27;20047;-74
2024/02/04 09:44:27;;;;;;;12.60;5.57;;;;;;;;;;5124607;27;20055;-74
2024/02/04 09:47:00;;;;;;;10.65;5.25;;;;;;;;;;5125144;27;20043;-74
2024/02/04 09:49:31;;;;;;;12.80;6.47;;;;;;;;;;5125274;27;20390;-73
2024/02/04 09:52:09;;;;;;;12.90;5.75;;;;;;;;;;5125399;27;20043;-74
2024/02/04 09:54:48;;;;;;;9.85;5.50;;;;;;;;;;5124514;27;20030;-74
2024/02/04 09:57:19;;;;;;;12.60;6.13;;;;;;;;;;5124485;27;20035;-73
2024/02/04 09:59:49;;;;;;;9.82;4.97;;;;;;;;;;5125133;27;20096;-74
2024/02/04 10:02:21;;;;;;;9.75;5.65;;;;;;;;;;5123183;27;20501;-74
2024/02/04 10:04:53;;;;;;;18.85;5.60;;;;;;;;;;5124762;27;20066;-74
2024/02/04 10:07:24;;;;;;;8.57;5.60;;;;;;;;;;5124713;27;20050;-74
2024/02/04 10:09:55;;;;;;;11.65;5.80;;;;;;;;;;5124009;27;20043;-74
2024/02/04 10:12:28;;;;;;;14.90;6.25;;;;;;;;;;5124196;27;20417;-74
2024/02/04 10:15:03;;;;;;;13.82;5.78;;;;;;;;;;5124202;27;20043;-74
2024/02/04 10:17:33;;;;;;;;;;;;;;;;;;5124676;27;20053;-74
2024/02/04 10:20:03;;;;;;;14.63;5.53;;;;;;;;;;5123915;27;19953;-74
2024/02/04 10:22:34;;;;;;;12.48;4.85;;;;;;;;;;5123710;27;20047;-74
2024/02/04 10:25:12;;;;;;;11.57;5.70;;;;;;;;;;5124171;27;20054;-74
2024/02/04 10:27:43;;;;;;;10.73;5.70;;;;;;;;;;5124358;27;20486;-74
2024/02/04 10:30:14;;;;;;;8.57;5.30;;;;;;;;;;5123725;27;20051;-75
2024/02/04 10:32:45;;;;;;;9.93;5.32;;;;;;;;;;5122438;27;20051;-74
2024/02/04 10:35:18;;;;;;;10.60;5.10;;;;;;;;;;5123657;27;20051;-74
2024/02/04 10:37:51;;;;;;;10.15;4.75;;;;;;;;;;5121976;27;20058;-74
2024/02/04 10:40:21;;;;;;;10.60;5.20;;;;;;;;;;5123558;27;20054;-74
2024/02/04 10:42:55;;;;;;;9.15;4.78;;;;;;;;;;5123797;27;20054;-74
2024/02/04 10:45:30;;;;;;;8.48;4.07;;;;;;;;;;5121773;27;20132;-76
2024/02/04 10:48:02;;;;;;;7.22;3.70;;;;;;;;;;5121816;27;20043;-74
2024/02/04 10:50:36;;;;;;;6.72;3.90;;;;;;;;;;5123452;27;20046;-74
2024/02/04 10:53:07;;;;;;;11.05;3.83;;;;;;;;;;5123029;27;20524;-75
2024/02/04 10:55:43;;;;;;;6.50;3.67;;;;;;;;;;5123695;27;20050;-75
2024/02/04 10:58:16;;;;;;;12.05;3.38;;;;;;;;;;5123196;27;20043;-74
2024/02/04 11:00:47;;;;;;;9.90;3.03;;;;;;;;;;5123415;27;20039;-82
2024/02/04 11:03:18;;;;;;;4.97;3.15;;;;;;;;;;5122969;27;20611;-74
2024/02/04 11:05:53;;;;;;;4.00;2.80;;;;;;;;;;5123585;27;20054;-74
2024/02/04 11:08:24;;;;;;;5.55;2.90;;;;;;;;;;5123472;27;20054;-75
2024/02/04 11:10:55;;;;;;;8.15;3.67;;;;;;;;;;5123123;27;20429;-75
2024/02/04 11:13:27;;;;;;;6.93;3.03;;;;;;;;;;5122218;27;20042;-74
2024/02/04 11:16:06;;;;;;;7.03;2.90;;;;;;;;;;5123944;27;20042;-74
2024/02/04 11:19:02;;;;;;;6.50;3.00;;;;;;;;;;5123621;27;20499;-78
2024/02/04 11:22:06;;;;;;;9.98;3.03;;;;;;;;;;5123357;27;20051;-74
2024/02/04 11:24:46;;;;;;;11.60;3.50;;;;;;;;;;5111063;27;20462;-75
2024/02/04 11:27:18;;;;;;;6.68;3.00;;;;;;;;;;5123207;27;20050;-75
2024/02/04 11:29:51;;;;;;;6.03;2.80;;;;;;;;;;5123143;27;20050;-74
2024/02/04 11:32:24;;;;;;;9.77;2.80;;;;;;;;;;5123255;27;20054;-72
2024/02/04 11:35:01;;;;;;;6.25;3.08;;;;;;;;;;5122305;27;20047;-75
2024/02/04 11:37:33;;;;;;;5.35;2.65;;;;;;;;;;5123425;27;20047;-74
2024/02/04 11:40:06;;;;;;;7.20;3.25;;;;;;;;;;5122504;27;20418;-75
2024/02/04 11:42:37;;;;;;;5.20;3.08;;;;;;;;;;5122402;27;20047;-74
2024/02/04 11:45:12;;;;;;;4.72;2.65;;;;;;;;;;5120881;28;20066;-74
2024/02/04 11:47:44;;;;;;;;;;;;;;;;;;5123464;28;20043;-75
2024/02/04 11:50:32;;;;;;;4.30;2.88;;;;;;;;;;5123659;28;20397;-74
2024/02/04 11:53:13;;;;;;;6.97;2.50;;;;;;;;;;5122563;28;20058;-74
2024/02/04 11:55:45;;;;;;;8.23;2.72;;;;;;;;;;5123132;28;20055;-76
2024/02/04 11:58:16;;;;;;;9.13;3.00;;;;;;;;;;5122669;28;20039;-74
2024/02/04 12:00:49;;;;;;;4.47;3.05;;;;;;;;;;5122984;28;20488;-78
2024/02/04 12:03:32;;;;;;;8.57;4.25;;;;;;;;;;5122363;27;20493;-75
2024/02/04 12:06:04;;;;;;;4.68;2.92;;;;;;;;;;5122803;27;20043;-75
2024/02/04 12:08:35;;;;;;;10.30;2.25;;;;;;;;;;5122556;28;20058;-75
2024/02/04 12:11:06;;;;;;;4.43;2.40;;;;;;;;;;5122917;27;20051;-76
2024/02/04 12:13:39;;;;;;;7.15;2.60;;;;;;;;;;5122789;27;20070;-75
2024/02/04 12:16:10;;;;;;;6.13;2.25;;;;;;;;;;5123258;28;20941;-75
2024/02/04 12:18:52;;;;;;;3.10;2.22;;;;;;;;;;5123120;28;20612;-74
2024/02/04 12:21:23;;;;;;;4.80;2.60;;;;;;;;;;5123342;28;20047;-72
2024/02/04 12:23:53;;;;;;;7.22;2.60;;;;;;;;;;5122245;27;20039;-73
2024/02/04 12:26:24;;;;;;;4.75;2.42;;;;;;;;;;5124028;27;20627;-72
2024/02/04 12:28:56;;;;;;;10.52;2.60;;;;;;;;;;5125943;27;20513;-72
2024/02/04 12:31:32;;;;;;;7.35;2.65;;;;;;;;;;5126501;27;20043;-72
2024/02/04 12:34:03;;;;;;;7.30;3.17;;;;;;;;;;5125804;27;20043;-73
2024/02/04 12:36:33;;;;;;;8.65;2.58;;;;;;;;;;5125962;27;20051;-75
2024/02/04 12:39:07;;;;;;;10.18;2.72;;;;;;;;;;5126389;27;20057;-74
2024/02/04 12:41:39;;;;;;;7.10;2.72;;;;;;;;;;5126106;27;20043;-75
2024/02/04 12:44:09;;;;;;;3.78;2.85;;;;;;;;;;5126193;27;20146;-74
2024/02/04 12:46:39;;;;;;;6.18;2.75;;;;;;;;;;5126530;27;20510;-74
2024/02/04 12:49:17;;;;;;;7.03;2.50;;;;;;;;;;5125777;27;20051;-73
2024/02/04 12:51:48;;;;;;;11.88;2.85;;;;;;;;;;5125915;27;20414;-71
2024/02/04 12:54:19;;;;;;;5.72;2.95;;;;;;;;;;5125828;27;20532;-73
2024/02/04 12:56:51;;;;;;;4.82;2.60;;;;;;;;;;5126179;27;20035;-73
2024/02/04 12:59:36;;;;;;;5.25;2.55;;;;;;;;;;5125678;27;20035;-74
2024/02/04 13:02:09;;;;;;;6.18;2.35;;;;;;;;;;5125694;27;20611;-74
2024/02/04 13:04:45;;;;;;;11.93;2.65;;;;;;;;;;5125696;27;20047;-74
2024/02/04 13:07:18;;;;;;;3.58;2.67;;;;;;;;;;5125157;27;20043;-73
2024/02/04 13:10:01;;;;;;;11.07;2.92;;;;;;;;;;5126219;27;20057;-77
2024/02/04 13:12:35;;;;;;;6.70;2.75;;;;;;;;;;5126297;27;20051;-74
2024/02/04 13:15:07;;;;;;;4.15;2.47;;;;;;;;;;5125867;27;20043;-73
2024/02/04 13:17:37;;;;;;;9.75;3.03;;;;;;;;;;5126107;27;20421;-73
2024/02/04 13:20:09;;;;;;;6.57;2.50;;;;;;;;;;5125285;27;20493;-73
2024/02/04 13:22:40;;;;;;;4.82;2.40;;;;;;;;;;5124886;27;20801;-75
2024/02/04 13:25:11;;;;;;;11.18;4.30;;;;;;;;;;5125742;27;20047;-73
2024/02/04 13:27:42;;;;;;;8.20;3.00;;;;;;;;;;5125377;27;20047;-74
2024/02/04 13:30:12;;;;;;;5.03;2.13;;;;;;;;;;5125327;27;20059;-73
2024/02/04 13:32:44;;;;;;;6.10;2.70;;;;;;;;;;5122919;27;20446;-72
2024/02/04 13:35:16;;;;;;;5.45;2.20;;;;;;;;;;5125523;27;20047;-74
2024/02/04 13:37:52;;;;;;;6.05;2.55;;;;;;;;;;5125445;27;20051;-74
2024/02/04 13:40:24;;;;;;;6.25;1.90;;;;;;;;;;5125711;27;20055;-75
2024/02/04 13:42:55;;;;;;;4.97;1.58;;;;;;;;;;5123519;27;20058;-74
2024/02/04 13:45:26;;;;;;;9.05;1.90;;;;;;;;;;5124690;27;20058;-73
2024/02/04 13:47:57;;;;;;;4.28;1.70;;;;;;;;;;5124445;27;20039;-74
2024/02/04 13:50:27;;;;;;;5.53;2.42;;;;;;;;;;5125072;27;21066;-74
2024/02/04 13:52:58;;;;;;;2.38;1.80;;;;;;;;;;5124527;27;20417;-74
2024/02/04 13:55:30;;;;;;;3.15;1.83;;;;;;;;;;5122013;27;20078;-74
2024/02/04 13:58:00;;;;;;;1.83;1.52;;;;;;;;;;5121618;27;20035;-74
2024/02/04 14:00:30;;;;;;;4.32;1.83;;;;;;;;;;5124237;27;20058;-75
2024/02/04 14:03:02;;;;;;;2.45;1.50;;;;;;;;;;5124020;27;20043;-72
2024/02/04 14:05:34;;;;;;;6.50;2.03;;;;;;;;;;5123879;27;20043;-76
2024/02/04 14:08:05;;;;;;;6.50;2.03;;;;;;;;;;5123502;27;20047;-74
2024/02/04 14:10:36;;;;;;;4.07;1.77;;;;;;;;;;5124561;27;20046;-73
2024/02/04 14:13:08;;;;;;;9.52;1.75;;;;;;;;;;5123035;27;20055;-74
2024/02/04 14:15:40;;;;;;;9.10;2.35;;;;;;;;;;5122087;27;20418;-73
2024/02/04 14:18:10;;;;;;;4.20;1.67;;;;;;;;;;5123874;27;20050;-74
2024/02/04 14:20:40;;;;;;;6.78;2.10;;;;;;;;;;5123937;27;20051;-74
2024/02/04 14:23:10;;;;;;;2.35;1.70;;;;;;;;;;5124105;27;20043;-74
2024/02/04 14:25:43;;;;;;;5.55;1.80;;;;;;;;;;5122422;27;20608;-74
2024/02/04 14:28:13;;;;;;;3.88;1.60;;;;;;;;;;5123924;27;20051;-73
2024/02/04 14:30:44;;;;;;;3.28;1.83;;;;;;;;;;5114482;27;20050;-75
2024/02/04 14:33:14;;;;;;;5.50;1.88;;;;;;;;;;5114611;27;20031;-74
2024/02/04 14:35:46;;;;;;;7.00;2.00;;;;;;;;;;5111716;27;20065;-75
2024/02/04 14:38:16;;;;;;;3.67;2.00;;;;;;;;;;5112346;27;20596;-73
2024/02/04 14:40:46;;;;;;;3.53;1.88;;;;;;;;;;5113468;27;20047;-76
2024/02/04 14:43:17;;;;;;;3.97;1.80;;;;;;;;;;5112937;27;20048;-74
2024/02/04 14:45:49;;;;;;;3.20;1.80;;;;;;;;;;5102570;28;20043;-74
2024/02/04 14:48:20;;;;;;;4.78;2.13;;;;;;;;;;5102575;28;20058;-73
2024/02/04 14:50:53;;;;;;;4.55;1.80;;;;;;;;;;5103159;28;20032;-77
2024/02/04 14:53:23;;;;;;;4.90;2.10;;;;;;;;;;5103292;28;20043;-74
2024/02/04 14:55:55;;;;;;;3.38;1.80;;;;;;;;;;5102831;28;20047;-73
2024/02/04 14:58:28;;;;;;;4.38;1.83;;;;;;;;;;5101781;28;20039;-74
2024/02/04 15:00:58;;;;;;;3.78;2.22;;;;;;;;;;5103030;28;20054;-73
2024/02/04 15:03:28;;;;;;;4.13;1.90;;;;;;;;;;5102750;28;20047;-77
2024/02/04 15:05:58;;;;;;;4.00;1.90;;;;;;;;;;5102796;28;20043;-76